sensor_id;sensor_type;location;lat;lon;timestamp;P1;durP1;ratioP1;P2;durP2;ratioP2
4676;SDS011;2352;48.180;11.478;2023-07-31T00:02:07;2.88;;;2.00;;
4676;SDS011;2352;48.180;11.478;2023-07-31T00:05:12;2.27;;;2.07;;
4676;SDS011;2352;48.180;11.478;2023-07-31T00:08:15;2.22;;;2.03;;
4676;SDS011;2352;48.180;11.478;2023-07-31T00:11:18;4.97;;;1.98;;
4676;SDS011;2352;48.180;11.478;2023-07-31T00:14:21;2.65;;;2.13;;
4676;SDS011;2352;48.180;11.478;2023-07-31T00:17:25;2.22;;;2.03;;
4676;SDS011;2352;48.180;11.478;2023-07-31T00:20:29;4.18;;;1.92;;
4676;SDS011;2352;48.180;11.478;2023-07-31T00:23:32;3.35;;;1.80;;
4676;SDS011;2352;48.180;11.478;2023-07-31T00:26:35;1.67;;;1.58;;
4676;SDS011;2352;48.180;11.478;2023-07-31T00:29:38;2.58;;;2.15;;
4676;SDS011;2352;48.180;11.478;2023-07-31T00:32:41;2.20;;;2.03;;
4676;SDS011;2352;48.180;11.478;2023-07-31T00:35:46;2.20;;;2.00;;
4676;SDS011;2352;48.180;11.478;2023-07-31T00:38:49;2.92;;;2.15;;
4676;SDS011;2352;48.180;11.478;2023-07-31T00:41:52;3.85;;;2.00;;
4676;SDS011;2352;48.180;11.478;2023-07-31T00:44:55;2.50;;;2.00;;
4676;SDS011;2352;48.180;11.478;2023-07-31T00:47:58;3.60;;;2.20;;
4676;SDS011;2352;48.180;11.478;2023-07-31T00:51:03;3.60;;;2.07;;
4676;SDS011;2352;48.180;11.478;2023-07-31T00:54:06;2.72;;;2.22;;
4676;SDS011;2352;48.180;11.478;2023-07-31T00:57:09;2.17;;;1.95;;
4676;SDS011;2352;48.180;11.478;2023-07-31T01:00:12;2.13;;;1.85;;
4676;SDS011;2352;48.180;11.478;2023-07-31T01:03:15;2.30;;;2.10;;
4676;SDS011;2352;48.180;11.478;2023-07-31T01:06:22;2.65;;;2.13;;
4676;SDS011;2352;48.180;11.478;2023-07-31T01:09:34;2.22;;;2.03;;
4676;SDS011;2352;48.180;11.478;2023-07-31T01:12:44;4.07;;;1.90;;
4676;SDS011;2352;48.180;11.478;2023-07-31T01:15:47;2.58;;;1.90;;
4676;SDS011;2352;48.180;11.478;2023-07-31T01:18:51;2.65;;;2.10;;
4676;SDS011;2352;48.180;11.478;2023-07-31T01:21:59;2.85;;;2.20;;
4676;SDS011;2352;48.180;11.478;2023-07-31T01:25:32;2.28;;;2.08;;
4676;SDS011;2352;48.180;11.478;2023-07-31T01:29:03;2.95;;;2.20;;
4676;SDS011;2352;48.180;11.478;2023-07-31T01:32:12;2.63;;;2.08;;
4676;SDS011;2352;48.180;11.478;2023-07-31T01:35:15;3.10;;;2.40;;
4676;SDS011;2352;48.180;11.478;2023-07-31T01:38:20;2.90;;;2.30;;
4676;SDS011;2352;48.180;11.478;2023-07-31T01:41:25;2.17;;;2.00;;
4676;SDS011;2352;48.180;11.478;2023-07-31T01:44:28;3.03;;;2.63;;
4676;SDS011;2352;48.180;11.478;2023-07-31T01:47:31;2.20;;;2.00;;
4676;SDS011;2352;48.180;11.478;2023-07-31T01:50:34;2.77;;;2.07;;
4676;SDS011;2352;48.180;11.478;2023-07-31T01:53:37;3.17;;;2.33;;
4676;SDS011;2352;48.180;11.478;2023-07-31T01:56:41;3.38;;;2.05;;
4676;SDS011;2352;48.180;11.478;2023-07-31T01:59:44;2.70;;;2.50;;
4676;SDS011;2352;48.180;11.478;2023-07-31T02:02:47;2.55;;;2.30;;
4676;SDS011;2352;48.180;11.478;2023-07-31T02:05:50;1.92;;;1.73;;
4676;SDS011;2352;48.180;11.478;2023-07-31T02:08:53;3.28;;;2.17;;
4676;SDS011;2352;48.180;11.478;2023-07-31T02:11:57;2.25;;;2.05;;
4676;SDS011;2352;48.180;11.478;2023-07-31T02:15:00;2.33;;;1.77;;
4676;SDS011;2352;48.180;11.478;2023-07-31T02:18:03;2.10;;;1.90;;
4676;SDS011;2352;48.180;11.478;2023-07-31T02:21:06;3.10;;;2.15;;
4676;SDS011;2352;48.180;11.478;2023-07-31T02:24:09;2.40;;;2.03;;
4676;SDS011;2352;48.180;11.478;2023-07-31T02:27:13;2.07;;;1.97;;
4676;SDS011;2352;48.180;11.478;2023-07-31T02:30:17;2.05;;;1.85;;
4676;SDS011;2352;48.180;11.478;2023-07-31T02:33:20;2.10;;;1.80;;
4676;SDS011;2352;48.180;11.478;2023-07-31T02:36:23;2.22;;;2.03;;
4676;SDS011;2352;48.180;11.478;2023-07-31T02:39:26;2.03;;;1.83;;
4676;SDS011;2352;48.180;11.478;2023-07-31T02:42:30;2.38;;;2.17;;
4676;SDS011;2352;48.180;11.478;2023-07-31T02:45:33;2.88;;;2.28;;
4676;SDS011;2352;48.180;11.478;2023-07-31T02:48:36;2.00;;;1.80;;
4676;SDS011;2352;48.180;11.478;2023-07-31T02:51:39;2.70;;;1.83;;
4676;SDS011;2352;48.180;11.478;2023-07-31T02:54:42;2.80;;;2.50;;
4676;SDS011;2352;48.180;11.478;2023-07-31T02:57:47;3.97;;;2.30;;
4676;SDS011;2352;48.180;11.478;2023-07-31T03:00:50;2.83;;;1.92;;
4676;SDS011;2352;48.180;11.478;2023-07-31T03:03:52;2.30;;;1.90;;
4676;SDS011;2352;48.180;11.478;2023-07-31T03:06:55;2.20;;;2.03;;
4676;SDS011;2352;48.180;11.478;2023-07-31T03:09:58;3.15;;;2.13;;
4676;SDS011;2352;48.180;11.478;2023-07-31T03:13:03;2.50;;;2.30;;
4676;SDS011;2352;48.180;11.478;2023-07-31T03:16:05;2.58;;;2.38;;
4676;SDS011;2352;48.180;11.478;2023-07-31T03:19:08;2.08;;;1.85;;
4676;SDS011;2352;48.180;11.478;2023-07-31T03:22:11;3.17;;;2.42;;
4676;SDS011;2352;48.180;11.478;2023-07-31T03:25:14;2.90;;;2.10;;
4676;SDS011;2352;48.180;11.478;2023-07-31T03:28:19;3.00;;;2.13;;
4676;SDS011;2352;48.180;11.478;2023-07-31T03:31:22;2.20;;;1.95;;
4676;SDS011;2352;48.180;11.478;2023-07-31T03:34:25;2.13;;;1.70;;
4676;SDS011;2352;48.180;11.478;2023-07-31T03:37:28;2.22;;;2.03;;
4676;SDS011;2352;48.180;11.478;2023-07-31T03:40:31;2.55;;;2.35;;
4676;SDS011;2352;48.180;11.478;2023-07-31T03:43:35;2.05;;;1.95;;
4676;SDS011;2352;48.180;11.478;2023-07-31T03:46:38;3.55;;;2.42;;
4676;SDS011;2352;48.180;11.478;2023-07-31T03:49:41;2.40;;;2.00;;
4676;SDS011;2352;48.180;11.478;2023-07-31T03:52:44;2.15;;;2.00;;
4676;SDS011;2352;48.180;11.478;2023-07-31T03:55:47;2.63;;;2.40;;
4676;SDS011;2352;48.180;11.478;2023-07-31T03:58:51;3.58;;;2.88;;
4676;SDS011;2352;48.180;11.478;2023-07-31T04:01:54;5.78;;;5.20;;
4676;SDS011;2352;48.180;11.478;2023-07-31T04:04:57;5.05;;;4.55;;
4676;SDS011;2352;48.180;11.478;2023-07-31T04:08:00;4.68;;;4.28;;
4676;SDS011;2352;48.180;11.478;2023-07-31T04:11:03;4.30;;;2.70;;
4676;SDS011;2352;48.180;11.478;2023-07-31T04:14:08;4.03;;;3.72;;
4676;SDS011;2352;48.180;11.478;2023-07-31T04:17:11;3.00;;;2.70;;
4676;SDS011;2352;48.180;11.478;2023-07-31T04:20:14;2.63;;;2.42;;
4676;SDS011;2352;48.180;11.478;2023-07-31T04:23:17;3.03;;;2.83;;
4676;SDS011;2352;48.180;11.478;2023-07-31T04:26:20;2.53;;;2.30;;
4676;SDS011;2352;48.180;11.478;2023-07-31T04:29:24;2.30;;;2.10;;
4676;SDS011;2352;48.180;11.478;2023-07-31T04:32:27;3.60;;;2.60;;
4676;SDS011;2352;48.180;11.478;2023-07-31T04:35:31;2.55;;;2.28;;
4676;SDS011;2352;48.180;11.478;2023-07-31T04:38:34;2.92;;;2.45;;
4676;SDS011;2352;48.180;11.478;2023-07-31T04:41:36;2.60;;;2.40;;
4676;SDS011;2352;48.180;11.478;2023-07-31T04:44:41;2.83;;;2.55;;
4676;SDS011;2352;48.180;11.478;2023-07-31T04:47:44;3.05;;;2.55;;
4676;SDS011;2352;48.180;11.478;2023-07-31T04:50:47;2.83;;;2.63;;
4676;SDS011;2352;48.180;11.478;2023-07-31T04:53:50;3.13;;;2.67;;
4676;SDS011;2352;48.180;11.478;2023-07-31T04:56:53;3.40;;;2.70;;
4676;SDS011;2352;48.180;11.478;2023-07-31T04:59:57;3.25;;;3.05;;
4676;SDS011;2352;48.180;11.478;2023-07-31T05:03:00;3.00;;;2.53;;
4676;SDS011;2352;48.180;11.478;2023-07-31T05:06:03;3.78;;;2.78;;
4676;SDS011;2352;48.180;11.478;2023-07-31T05:09:06;3.13;;;2.72;;
4676;SDS011;2352;48.180;11.478;2023-07-31T05:12:10;3.65;;;2.50;;
4676;SDS011;2352;48.180;11.478;2023-07-31T05:15:14;3.47;;;2.45;;
4676;SDS011;2352;48.180;11.478;2023-07-31T05:18:17;2.72;;;2.53;;
4676;SDS011;2352;48.180;11.478;2023-07-31T05:21:20;2.90;;;2.63;;
4676;SDS011;2352;48.180;11.478;2023-07-31T05:24:23;3.10;;;2.80;;
4676;SDS011;2352;48.180;11.478;2023-07-31T05:27:26;3.60;;;2.60;;
4676;SDS011;2352;48.180;11.478;2023-07-31T05:30:30;3.15;;;2.45;;
4676;SDS011;2352;48.180;11.478;2023-07-31T05:33:33;2.92;;;2.72;;
4676;SDS011;2352;48.180;11.478;2023-07-31T05:36:36;3.57;;;2.20;;
4676;SDS011;2352;48.180;11.478;2023-07-31T05:39:40;3.25;;;2.50;;
4676;SDS011;2352;48.180;11.478;2023-07-31T05:42:43;3.23;;;2.30;;
4676;SDS011;2352;48.180;11.478;2023-07-31T05:45:47;2.90;;;2.70;;
4676;SDS011;2352;48.180;11.478;2023-07-31T05:48:50;2.63;;;2.42;;
4676;SDS011;2352;48.180;11.478;2023-07-31T05:51:53;2.60;;;2.40;;
4676;SDS011;2352;48.180;11.478;2023-07-31T05:54:56;2.88;;;2.50;;
4676;SDS011;2352;48.180;11.478;2023-07-31T05:57:59;2.85;;;2.65;;
4676;SDS011;2352;48.180;11.478;2023-07-31T06:01:03;3.63;;;2.00;;
4676;SDS011;2352;48.180;11.478;2023-07-31T06:04:06;2.35;;;2.15;;
4676;SDS011;2352;48.180;11.478;2023-07-31T06:07:09;2.85;;;2.17;;
4676;SDS011;2352;48.180;11.478;2023-07-31T06:10:12;2.53;;;2.33;;
4676;SDS011;2352;48.180;11.478;2023-07-31T06:13:15;2.42;;;1.98;;
4676;SDS011;2352;48.180;11.478;2023-07-31T06:16:20;2.75;;;2.30;;
4676;SDS011;2352;48.180;11.478;2023-07-31T06:19:23;3.17;;;1.92;;
4676;SDS011;2352;48.180;11.478;2023-07-31T06:22:26;4.45;;;2.33;;
4676;SDS011;2352;48.180;11.478;2023-07-31T06:25:29;2.45;;;2.25;;
4676;SDS011;2352;48.180;11.478;2023-07-31T06:28:32;2.70;;;2.00;;
4676;SDS011;2352;48.180;11.478;2023-07-31T06:31:37;4.03;;;2.42;;
4676;SDS011;2352;48.180;11.478;2023-07-31T06:34:40;3.28;;;2.35;;
4676;SDS011;2352;48.180;11.478;2023-07-31T06:37:43;2.20;;;2.00;;
4676;SDS011;2352;48.180;11.478;2023-07-31T06:40:46;2.28;;;2.08;;
4676;SDS011;2352;48.180;11.478;2023-07-31T06:43:50;3.05;;;2.40;;
4676;SDS011;2352;48.180;11.478;2023-07-31T06:46:54;3.67;;;2.67;;
4676;SDS011;2352;48.180;11.478;2023-07-31T06:49:57;4.70;;;2.40;;
4676;SDS011;2352;48.180;11.478;2023-07-31T06:53:00;2.03;;;1.80;;
4676;SDS011;2352;48.180;11.478;2023-07-31T06:56:03;4.10;;;2.20;;
4676;SDS011;2352;48.180;11.478;2023-07-31T06:59:06;6.43;;;2.47;;
4676;SDS011;2352;48.180;11.478;2023-07-31T07:02:11;2.63;;;2.08;;
4676;SDS011;2352;48.180;11.478;2023-07-31T07:05:14;2.17;;;2.07;;
4676;SDS011;2352;48.180;11.478;2023-07-31T07:08:17;2.55;;;1.95;;
4676;SDS011;2352;48.180;11.478;2023-07-31T07:11:20;2.45;;;2.25;;
4676;SDS011;2352;48.180;11.478;2023-07-31T07:14:23;2.13;;;1.87;;
4676;SDS011;2352;48.180;11.478;2023-07-31T07:17:28;2.08;;;1.88;;
4676;SDS011;2352;48.180;11.478;2023-07-31T07:20:32;3.23;;;2.40;;
4676;SDS011;2352;48.180;11.478;2023-07-31T07:23:35;3.10;;;2.03;;
4676;SDS011;2352;48.180;11.478;2023-07-31T07:26:38;2.33;;;1.95;;
4676;SDS011;2352;48.180;11.478;2023-07-31T07:29:42;2.77;;;2.57;;
4676;SDS011;2352;48.180;11.478;2023-07-31T07:32:46;2.28;;;2.05;;
4676;SDS011;2352;48.180;11.478;2023-07-31T07:35:49;2.20;;;1.70;;
4676;SDS011;2352;48.180;11.478;2023-07-31T07:38:52;2.25;;;1.73;;
4676;SDS011;2352;48.180;11.478;2023-07-31T07:41:55;2.38;;;1.98;;
4676;SDS011;2352;48.180;11.478;2023-07-31T07:44:58;4.35;;;2.00;;
4676;SDS011;2352;48.180;11.478;2023-07-31T07:48:02;2.30;;;2.10;;
4676;SDS011;2352;48.180;11.478;2023-07-31T07:51:05;2.30;;;1.95;;
4676;SDS011;2352;48.180;11.478;2023-07-31T07:54:08;2.75;;;1.98;;
4676;SDS011;2352;48.180;11.478;2023-07-31T07:57:11;1.80;;;1.60;;
4676;SDS011;2352;48.180;11.478;2023-07-31T08:00:14;2.65;;;2.28;;
4676;SDS011;2352;48.180;11.478;2023-07-31T08:03:20;4.43;;;2.40;;
4676;SDS011;2352;48.180;11.478;2023-07-31T08:06:23;2.20;;;1.90;;
4676;SDS011;2352;48.180;11.478;2023-07-31T08:09:26;3.58;;;2.20;;
4676;SDS011;2352;48.180;11.478;2023-07-31T08:12:29;3.63;;;2.03;;
4676;SDS011;2352;48.180;11.478;2023-07-31T08:15:32;3.05;;;2.17;;
4676;SDS011;2352;48.180;11.478;2023-07-31T08:18:47;2.35;;;1.80;;
4676;SDS011;2352;48.180;11.478;2023-07-31T08:21:51;2.87;;;1.90;;
4676;SDS011;2352;48.180;11.478;2023-07-31T08:24:58;1.83;;;1.63;;
4676;SDS011;2352;48.180;11.478;2023-07-31T08:28:01;3.65;;;1.65;;
4676;SDS011;2352;48.180;11.478;2023-07-31T08:31:06;1.92;;;1.50;;
4676;SDS011;2352;48.180;11.478;2023-07-31T08:34:11;2.30;;;1.60;;
4676;SDS011;2352;48.180;11.478;2023-07-31T08:37:16;1.70;;;1.60;;
4676;SDS011;2352;48.180;11.478;2023-07-31T08:40:19;1.90;;;1.70;;
4676;SDS011;2352;48.180;11.478;2023-07-31T08:43:23;1.83;;;1.60;;
4676;SDS011;2352;48.180;11.478;2023-07-31T08:46:28;3.10;;;2.00;;
4676;SDS011;2352;48.180;11.478;2023-07-31T08:49:33;1.42;;;1.33;;
4676;SDS011;2352;48.180;11.478;2023-07-31T08:52:37;2.85;;;1.60;;
4676;SDS011;2352;48.180;11.478;2023-07-31T08:55:40;3.17;;;1.90;;
4676;SDS011;2352;48.180;11.478;2023-07-31T08:58:43;4.22;;;1.70;;
4676;SDS011;2352;48.180;11.478;2023-07-31T09:01:48;1.90;;;1.70;;
4676;SDS011;2352;48.180;11.478;2023-07-31T09:04:56;2.33;;;1.60;;
4676;SDS011;2352;48.180;11.478;2023-07-31T09:08:00;2.37;;;2.17;;
4676;SDS011;2352;48.180;11.478;2023-07-31T09:11:06;2.25;;;1.80;;
4676;SDS011;2352;48.180;11.478;2023-07-31T09:14:09;3.63;;;1.77;;
4676;SDS011;2352;48.180;11.478;2023-07-31T09:17:13;3.00;;;1.90;;
4676;SDS011;2352;48.180;11.478;2023-07-31T09:20:17;2.05;;;1.73;;
4676;SDS011;2352;48.180;11.478;2023-07-31T09:23:22;1.87;;;1.73;;
4676;SDS011;2352;48.180;11.478;2023-07-31T09:26:28;2.50;;;1.80;;
4676;SDS011;2352;48.180;11.478;2023-07-31T09:29:32;4.22;;;1.92;;
4676;SDS011;2352;48.180;11.478;2023-07-31T09:32:35;4.13;;;1.92;;
4676;SDS011;2352;48.180;11.478;2023-07-31T09:35:40;2.63;;;1.80;;
4676;SDS011;2352;48.180;11.478;2023-07-31T09:38:44;2.00;;;1.63;;
4676;SDS011;2352;48.180;11.478;2023-07-31T09:41:48;2.30;;;1.63;;
4676;SDS011;2352;48.180;11.478;2023-07-31T09:45:00;2.10;;;1.80;;
4676;SDS011;2352;48.180;11.478;2023-07-31T09:48:11;2.10;;;1.65;;
4676;SDS011;2352;48.180;11.478;2023-07-31T09:51:18;1.95;;;1.83;;
4676;SDS011;2352;48.180;11.478;2023-07-31T09:54:28;2.53;;;1.83;;
4676;SDS011;2352;48.180;11.478;2023-07-31T09:57:31;3.10;;;2.15;;
4676;SDS011;2352;48.180;11.478;2023-07-31T10:00:35;2.90;;;1.90;;
4676;SDS011;2352;48.180;11.478;2023-07-31T10:03:39;2.58;;;1.65;;
4676;SDS011;2352;48.180;11.478;2023-07-31T10:06:44;2.30;;;1.75;;
4676;SDS011;2352;48.180;11.478;2023-07-31T10:09:51;3.88;;;2.25;;
4676;SDS011;2352;48.180;11.478;2023-07-31T10:12:56;3.72;;;1.83;;
4676;SDS011;2352;48.180;11.478;2023-07-31T10:15:59;2.25;;;1.80;;
4676;SDS011;2352;48.180;11.478;2023-07-31T10:19:03;3.33;;;2.08;;
4676;SDS011;2352;48.180;11.478;2023-07-31T10:22:08;2.78;;;1.50;;
4676;SDS011;2352;48.180;11.478;2023-07-31T10:25:14;2.72;;;2.17;;
4676;SDS011;2352;48.180;11.478;2023-07-31T10:28:19;2.40;;;1.77;;
4676;SDS011;2352;48.180;11.478;2023-07-31T10:31:23;3.60;;;2.13;;
4676;SDS011;2352;48.180;11.478;2023-07-31T10:34:27;2.10;;;1.90;;
4676;SDS011;2352;48.180;11.478;2023-07-31T10:37:36;2.03;;;1.77;;
4676;SDS011;2352;48.180;11.478;2023-07-31T10:40:40;1.67;;;1.58;;
4676;SDS011;2352;48.180;11.478;2023-07-31T10:43:45;1.97;;;1.80;;
4676;SDS011;2352;48.180;11.478;2023-07-31T10:46:48;3.10;;;1.77;;
4676;SDS011;2352;48.180;11.478;2023-07-31T10:49:51;1.90;;;1.70;;
4676;SDS011;2352;48.180;11.478;2023-07-31T10:52:56;2.67;;;1.70;;
4676;SDS011;2352;48.180;11.478;2023-07-31T10:56:00;2.60;;;1.58;;
4676;SDS011;2352;48.180;11.478;2023-07-31T10:59:03;2.38;;;1.92;;
4676;SDS011;2352;48.180;11.478;2023-07-31T11:02:07;2.58;;;2.05;;
4676;SDS011;2352;48.180;11.478;2023-07-31T11:05:43;1.93;;;1.73;;
4676;SDS011;2352;48.180;11.478;2023-07-31T11:08:56;2.58;;;1.70;;
4676;SDS011;2352;48.180;11.478;2023-07-31T11:11:59;2.63;;;1.45;;
4676;SDS011;2352;48.180;11.478;2023-07-31T11:15:02;2.50;;;1.73;;
4676;SDS011;2352;48.180;11.478;2023-07-31T11:18:05;2.05;;;1.85;;
4676;SDS011;2352;48.180;11.478;2023-07-31T11:21:11;2.03;;;1.70;;
4676;SDS011;2352;48.180;11.478;2023-07-31T11:24:16;3.03;;;1.90;;
4676;SDS011;2352;48.180;11.478;2023-07-31T11:27:20;2.60;;;1.80;;
4676;SDS011;2352;48.180;11.478;2023-07-31T11:30:23;3.87;;;1.63;;
4676;SDS011;2352;48.180;11.478;2023-07-31T11:33:26;1.95;;;1.83;;
4676;SDS011;2352;48.180;11.478;2023-07-31T11:36:29;2.03;;;1.83;;
4676;SDS011;2352;48.180;11.478;2023-07-31T11:39:34;2.10;;;1.40;;
4676;SDS011;2352;48.180;11.478;2023-07-31T11:42:37;3.07;;;1.87;;
4676;SDS011;2352;48.180;11.478;2023-07-31T11:45:40;2.10;;;1.90;;
4676;SDS011;2352;48.180;11.478;2023-07-31T11:48:43;1.73;;;1.52;;
4676;SDS011;2352;48.180;11.478;2023-07-31T11:51:46;2.90;;;1.88;;
4676;SDS011;2352;48.180;11.478;2023-07-31T11:54:51;1.63;;;1.50;;
4676;SDS011;2352;48.180;11.478;2023-07-31T11:57:55;2.20;;;1.93;;
4676;SDS011;2352;48.180;11.478;2023-07-31T12:01:00;1.50;;;1.40;;
4676;SDS011;2352;48.180;11.478;2023-07-31T12:04:04;2.25;;;1.80;;
4676;SDS011;2352;48.180;11.478;2023-07-31T12:07:08;2.30;;;1.37;;
4676;SDS011;2352;48.180;11.478;2023-07-31T12:10:12;1.65;;;1.50;;
4676;SDS011;2352;48.180;11.478;2023-07-31T12:13:25;1.73;;;1.63;;
4676;SDS011;2352;48.180;11.478;2023-07-31T12:16:29;2.00;;;1.53;;
4676;SDS011;2352;48.180;11.478;2023-07-31T12:19:32;1.80;;;1.52;;
4676;SDS011;2352;48.180;11.478;2023-07-31T12:22:36;3.17;;;1.90;;
4676;SDS011;2352;48.180;11.478;2023-07-31T12:25:40;2.40;;;1.80;;
4676;SDS011;2352;48.180;11.478;2023-07-31T12:28:44;1.70;;;1.60;;
4676;SDS011;2352;48.180;11.478;2023-07-31T12:31:48;2.00;;;1.80;;
4676;SDS011;2352;48.180;11.478;2023-07-31T12:34:51;2.30;;;1.95;;
4676;SDS011;2352;48.180;11.478;2023-07-31T12:37:54;2.28;;;1.67;;
4676;SDS011;2352;48.180;11.478;2023-07-31T12:40:58;1.93;;;1.80;;
4676;SDS011;2352;48.180;11.478;2023-07-31T12:44:02;2.50;;;1.80;;
4676;SDS011;2352;48.180;11.478;2023-07-31T12:47:05;1.65;;;1.55;;
4676;SDS011;2352;48.180;11.478;2023-07-31T12:50:08;2.15;;;1.70;;
4676;SDS011;2352;48.180;11.478;2023-07-31T12:53:11;2.00;;;1.80;;
4676;SDS011;2352;48.180;11.478;2023-07-31T12:56:16;1.73;;;1.63;;
4676;SDS011;2352;48.180;11.478;2023-07-31T12:59:19;3.67;;;2.10;;
4676;SDS011;2352;48.180;11.478;2023-07-31T13:02:22;2.70;;;1.90;;
4676;SDS011;2352;48.180;11.478;2023-07-31T13:05:27;2.20;;;1.73;;
4676;SDS011;2352;48.180;11.478;2023-07-31T13:08:30;2.58;;;1.40;;
4676;SDS011;2352;48.180;11.478;2023-07-31T13:11:34;3.83;;;2.20;;
4676;SDS011;2352;48.180;11.478;2023-07-31T13:14:37;2.97;;;1.90;;
4676;SDS011;2352;48.180;11.478;2023-07-31T13:17:40;1.70;;;1.33;;
4676;SDS011;2352;48.180;11.478;2023-07-31T13:20:43;1.92;;;1.52;;
4676;SDS011;2352;48.180;11.478;2023-07-31T13:23:46;2.10;;;1.60;;
4676;SDS011;2352;48.180;11.478;2023-07-31T13:26:50;1.73;;;1.50;;
4676;SDS011;2352;48.180;11.478;2023-07-31T13:29:53;1.95;;;1.40;;
4676;SDS011;2352;48.180;11.478;2023-07-31T13:32:56;1.55;;;1.42;;
4676;SDS011;2352;48.180;11.478;2023-07-31T13:35:59;1.52;;;1.42;;
4676;SDS011;2352;48.180;11.478;2023-07-31T13:39:02;2.40;;;1.77;;
4676;SDS011;2352;48.180;11.478;2023-07-31T13:42:07;2.83;;;1.60;;
4676;SDS011;2352;48.180;11.478;2023-07-31T13:45:13;2.80;;;1.95;;
4676;SDS011;2352;48.180;11.478;2023-07-31T13:48:16;2.38;;;1.58;;
4676;SDS011;2352;48.180;11.478;2023-07-31T13:51:19;1.95;;;1.45;;
4676;SDS011;2352;48.180;11.478;2023-07-31T13:54:22;2.13;;;1.60;;
4676;SDS011;2352;48.180;11.478;2023-07-31T13:57:29;1.52;;;1.42;;
4676;SDS011;2352;48.180;11.478;2023-07-31T14:00:32;1.83;;;1.60;;
4676;SDS011;2352;48.180;11.478;2023-07-31T14:03:36;1.75;;;1.40;;
4676;SDS011;2352;48.180;11.478;2023-07-31T14:06:39;3.00;;;1.50;;
4676;SDS011;2352;48.180;11.478;2023-07-31T14:09:42;3.75;;;1.65;;
4676;SDS011;2352;48.180;11.478;2023-07-31T14:12:47;3.20;;;1.73;;
4676;SDS011;2352;48.180;11.478;2023-07-31T14:15:50;2.20;;;1.55;;
4676;SDS011;2352;48.180;11.478;2023-07-31T14:18:53;1.85;;;1.75;;
4676;SDS011;2352;48.180;11.478;2023-07-31T14:21:57;2.70;;;1.90;;
4676;SDS011;2352;48.180;11.478;2023-07-31T14:25:11;2.05;;;1.92;;
4676;SDS011;2352;48.180;11.478;2023-07-31T14:28:16;1.92;;;1.73;;
4676;SDS011;2352;48.180;11.478;2023-07-31T14:31:18;3.35;;;1.80;;
4676;SDS011;2352;48.180;11.478;2023-07-31T14:34:22;2.30;;;1.77;;
4676;SDS011;2352;48.180;11.478;2023-07-31T14:37:25;2.00;;;1.80;;
4676;SDS011;2352;48.180;11.478;2023-07-31T14:40:29;2.63;;;1.67;;
4676;SDS011;2352;48.180;11.478;2023-07-31T14:43:34;2.20;;;1.73;;
4676;SDS011;2352;48.180;11.478;2023-07-31T14:46:36;2.78;;;2.20;;
4676;SDS011;2352;48.180;11.478;2023-07-31T14:49:40;3.75;;;2.08;;
4676;SDS011;2352;48.180;11.478;2023-07-31T14:52:43;2.97;;;2.67;;
4676;SDS011;2352;48.180;11.478;2023-07-31T14:55:46;3.90;;;2.40;;
4676;SDS011;2352;48.180;11.478;2023-07-31T14:58:50;2.72;;;2.50;;
4676;SDS011;2352;48.180;11.478;2023-07-31T15:01:53;3.55;;;3.25;;
4676;SDS011;2352;48.180;11.478;2023-07-31T15:04:56;2.77;;;2.57;;
4676;SDS011;2352;48.180;11.478;2023-07-31T15:07:59;3.15;;;2.85;;
4676;SDS011;2352;48.180;11.478;2023-07-31T15:11:02;2.65;;;2.45;;
4676;SDS011;2352;48.180;11.478;2023-07-31T15:14:06;2.58;;;2.38;;
4676;SDS011;2352;48.180;11.478;2023-07-31T15:17:10;3.15;;;2.90;;
4676;SDS011;2352;48.180;11.478;2023-07-31T15:20:13;2.60;;;2.20;;
4676;SDS011;2352;48.180;11.478;2023-07-31T15:23:16;3.15;;;2.47;;
4676;SDS011;2352;48.180;11.478;2023-07-31T15:26:19;2.75;;;1.88;;
4676;SDS011;2352;48.180;11.478;2023-07-31T15:29:24;2.17;;;1.98;;
4676;SDS011;2352;48.180;11.478;2023-07-31T15:32:27;1.95;;;1.80;;
4676;SDS011;2352;48.180;11.478;2023-07-31T15:35:29;2.33;;;2.13;;
4676;SDS011;2352;48.180;11.478;2023-07-31T15:38:32;2.10;;;1.90;;
4676;SDS011;2352;48.180;11.478;2023-07-31T15:41:36;2.22;;;2.03;;
4676;SDS011;2352;48.180;11.478;2023-07-31T15:44:40;2.80;;;2.00;;
4676;SDS011;2352;48.180;11.478;2023-07-31T15:47:43;2.05;;;1.90;;
4676;SDS011;2352;48.180;11.478;2023-07-31T15:50:46;2.80;;;2.20;;
4676;SDS011;2352;48.180;11.478;2023-07-31T15:53:49;2.40;;;2.20;;
4676;SDS011;2352;48.180;11.478;2023-07-31T15:56:52;2.58;;;2.38;;
4676;SDS011;2352;48.180;11.478;2023-07-31T15:59:57;2.78;;;2.58;;
4676;SDS011;2352;48.180;11.478;2023-07-31T16:03:00;2.38;;;2.17;;
4676;SDS011;2352;48.180;11.478;2023-07-31T16:06:03;2.30;;;2.20;;
4676;SDS011;2352;48.180;11.478;2023-07-31T16:09:06;3.00;;;2.42;;
4676;SDS011;2352;48.180;11.478;2023-07-31T16:12:09;2.60;;;2.40;;
4676;SDS011;2352;48.180;11.478;2023-07-31T16:15:14;2.45;;;2.25;;
4676;SDS011;2352;48.180;11.478;2023-07-31T16:18:17;2.33;;;2.17;;
4676;SDS011;2352;48.180;11.478;2023-07-31T16:21:20;2.17;;;1.98;;
4676;SDS011;2352;48.180;11.478;2023-07-31T16:24:23;2.38;;;2.17;;
4676;SDS011;2352;48.180;11.478;2023-07-31T16:27:26;2.57;;;2.37;;
4676;SDS011;2352;48.180;11.478;2023-07-31T16:30:31;5.80;;;2.70;;
4676;SDS011;2352;48.180;11.478;2023-07-31T16:33:34;3.22;;;2.75;;
4676;SDS011;2352;48.180;11.478;2023-07-31T16:36:37;2.75;;;2.47;;
4676;SDS011;2352;48.180;11.478;2023-07-31T16:39:40;2.70;;;2.50;;
4676;SDS011;2352;48.180;11.478;2023-07-31T16:42:47;3.78;;;2.50;;
4676;SDS011;2352;48.180;11.478;2023-07-31T16:45:52;2.50;;;2.30;;
4676;SDS011;2352;48.180;11.478;2023-07-31T16:48:55;2.25;;;2.10;;
4676;SDS011;2352;48.180;11.478;2023-07-31T16:51:58;3.33;;;2.95;;
4676;SDS011;2352;48.180;11.478;2023-07-31T16:55:01;2.75;;;2.10;;
4676;SDS011;2352;48.180;11.478;2023-07-31T16:58:04;2.27;;;2.00;;
4676;SDS011;2352;48.180;11.478;2023-07-31T17:01:08;2.90;;;2.60;;
4676;SDS011;2352;48.180;11.478;2023-07-31T17:04:11;2.38;;;2.17;;
4676;SDS011;2352;48.180;11.478;2023-07-31T17:07:15;2.40;;;2.20;;
4676;SDS011;2352;48.180;11.478;2023-07-31T17:10:19;4.10;;;2.73;;
4676;SDS011;2352;48.180;11.478;2023-07-31T17:13:22;4.18;;;2.47;;
4676;SDS011;2352;48.180;11.478;2023-07-31T17:16:26;2.80;;;2.60;;
4676;SDS011;2352;48.180;11.478;2023-07-31T17:19:30;2.70;;;2.50;;
4676;SDS011;2352;48.180;11.478;2023-07-31T17:22:33;2.78;;;2.55;;
4676;SDS011;2352;48.180;11.478;2023-07-31T17:25:48;2.65;;;2.38;;
4676;SDS011;2352;48.180;11.478;2023-07-31T17:28:51;3.63;;;2.65;;
4676;SDS011;2352;48.180;11.478;2023-07-31T17:31:56;2.83;;;2.58;;
4676;SDS011;2352;48.180;11.478;2023-07-31T17:34:59;3.08;;;2.58;;
4676;SDS011;2352;48.180;11.478;2023-07-31T17:38:02;4.63;;;2.95;;
4676;SDS011;2352;48.180;11.478;2023-07-31T17:41:05;2.90;;;2.70;;
4676;SDS011;2352;48.180;11.478;2023-07-31T17:44:09;3.00;;;2.75;;
4676;SDS011;2352;48.180;11.478;2023-07-31T17:47:14;2.90;;;2.60;;
4676;SDS011;2352;48.180;11.478;2023-07-31T17:50:16;2.55;;;2.33;;
4676;SDS011;2352;48.180;11.478;2023-07-31T17:53:20;2.90;;;2.70;;
4676;SDS011;2352;48.180;11.478;2023-07-31T17:56:23;2.08;;;1.98;;
4676;SDS011;2352;48.180;11.478;2023-07-31T17:59:26;2.75;;;2.42;;
4676;SDS011;2352;48.180;11.478;2023-07-31T18:02:30;2.83;;;2.33;;
4676;SDS011;2352;48.180;11.478;2023-07-31T18:05:33;3.20;;;2.40;;
4676;SDS011;2352;48.180;11.478;2023-07-31T18:08:38;3.22;;;2.92;;
4676;SDS011;2352;48.180;11.478;2023-07-31T18:11:41;2.92;;;2.55;;
4676;SDS011;2352;48.180;11.478;2023-07-31T18:14:44;3.10;;;2.33;;
4676;SDS011;2352;48.180;11.478;2023-07-31T18:17:49;2.60;;;2.10;;
4676;SDS011;2352;48.180;11.478;2023-07-31T18:20:52;2.63;;;2.20;;
4676;SDS011;2352;48.180;11.478;2023-07-31T18:23:55;3.38;;;2.90;;
4676;SDS011;2352;48.180;11.478;2023-07-31T18:26:58;3.00;;;2.57;;
4676;SDS011;2352;48.180;11.478;2023-07-31T18:30:01;3.55;;;2.72;;
4676;SDS011;2352;48.180;11.478;2023-07-31T18:33:05;2.83;;;2.40;;
4676;SDS011;2352;48.180;11.478;2023-07-31T18:36:09;4.13;;;2.53;;
4676;SDS011;2352;48.180;11.478;2023-07-31T18:39:11;3.22;;;2.88;;
4676;SDS011;2352;48.180;11.478;2023-07-31T18:42:15;2.50;;;2.30;;
4676;SDS011;2352;48.180;11.478;2023-07-31T18:45:17;3.33;;;3.03;;